createdAt,value
2016-12-10T00:00:26.990Z,97.55
2016-12-10T00:01:08.703Z,97.21
2016-12-10T00:01:50.347Z,97.26
2016-12-10T00:02:32.139Z,97.5
2016-12-10T00:03:13.924Z,97.83
2016-12-10T00:03:55.658Z,97.26
2016-12-10T00:04:37.383Z,97.92
2016-12-10T00:05:19.187Z,97.78
2016-12-10T00:06:00.806Z,98.02
2016-12-10T00:06:42.551Z,97.64
2016-12-10T00:07:24.307Z,97.59
2016-12-10T00:08:06.016Z,97.78
2016-12-10T00:08:47.753Z,97.78
2016-12-10T00:09:29.323Z,98.16
2016-12-10T00:10:10.880Z,98.16
2016-12-10T00:12:00.316Z,97.88
2016-12-10T00:12:42.070Z,98.07
2016-12-10T00:13:23.810Z,97.97
2016-12-10T00:14:05.471Z,98.35
2016-12-10T00:14:47.083Z,98.54
2016-12-10T00:15:28.811Z,98.07
2016-12-10T00:16:10.530Z,98.07
2016-12-10T00:16:52.175Z,98.35
2016-12-10T00:17:33.994Z,98.16
2016-12-10T00:18:15.792Z,98.16
2016-12-10T00:18:57.456Z,98.35
2016-12-10T00:19:39.062Z,98.35
2016-12-10T00:20:20.781Z,98.25
2016-12-10T00:21:02.510Z,98.25
2016-12-10T00:21:44.213Z,98.35
2016-12-10T00:22:25.875Z,98.35
2016-12-10T00:23:07.576Z,98.35
2016-12-10T00:23:49.116Z,98.07
2016-12-10T00:24:30.930Z,98.25
2016-12-10T00:25:12.615Z,98.25
2016-12-10T00:25:54.394Z,98.07
2016-12-10T00:26:36.073Z,98.07
2016-12-10T00:27:17.717Z,98.25
2016-12-10T00:27:59.339Z,98.54
2016-12-10T00:28:40.996Z,98.35
2016-12-10T00:29:22.639Z,98.07
2016-12-10T00:30:04.297Z,97.78
2016-12-10T00:30:45.998Z,98.16
2016-12-10T00:31:27.721Z,97.78
2016-12-10T00:32:09.475Z,97.97
2016-12-10T00:32:51.274Z,98.16
2016-12-10T00:33:32.806Z,98.63
2016-12-10T00:34:14.476Z,98.44
2016-12-10T00:36:35.287Z,98.54
2016-12-10T00:38:29.900Z,97.97
2016-12-10T00:39:11.594Z,98.25
2016-12-10T00:39:53.399Z,98.35
2016-12-10T00:41:53.460Z,99.11
2016-12-10T00:42:35.080Z,98.16
2016-12-10T00:43:16.861Z,98.35
2016-12-10T00:45:37.287Z,98.92
2016-12-10T00:46:19.091Z,98.92
2016-12-10T00:47:00.802Z,98.82
2016-12-10T00:47:42.584Z,98.54
2016-12-10T00:48:24.345Z,98.44
2016-12-10T00:49:06.107Z,98.54
2016-12-10T00:49:47.860Z,98.35
2016-12-10T00:50:29.607Z,98.92
2016-12-10T00:51:11.320Z,99.11
2016-12-10T00:51:52.934Z,98.92
2016-12-10T00:52:34.566Z,98.92
2016-12-10T00:53:16.209Z,99.11
2016-12-10T00:55:36.848Z,99.11
2016-12-10T00:56:18.467Z,99.11
2016-12-10T00:56:59.989Z,99.01
2016-12-10T00:58:59.998Z,98.73
2016-12-10T01:00:54.581Z,99.01
2016-12-10T01:02:49.163Z,99.11
2016-12-10T01:03:30.876Z,98.92
2016-12-10T01:04:12.571Z,99.11
2016-12-10T01:04:54.114Z,98.92
2016-12-10T01:05:35.627Z,99.58
2016-12-10T01:07:35.642Z,99.39
2016-12-10T01:08:17.416Z,99.11
2016-12-10T01:10:37.988Z,99.39
2016-12-10T01:11:19.431Z,99.2
2016-12-10T01:12:01.107Z,99.3
2016-12-10T01:12:42.764Z,99.11
2016-12-10T01:13:24.454Z,99.11
2016-12-10T01:14:06.170Z,99.11
2016-12-10T01:14:47.917Z,99.3
2016-12-10T01:15:29.472Z,99.3
2016-12-10T01:17:50.128Z,99.39
2016-12-10T01:19:50.142Z,99.2
2016-12-10T01:20:31.731Z,99.39
2016-12-10T01:22:26.327Z,99.39
2016-12-10T01:23:08.112Z,99.39
2016-12-10T01:23:49.880Z,99.39
2016-12-10T01:27:23.609Z,99.49
2016-12-10T01:28:05.393Z,99.3
2016-12-10T01:28:47.153Z,99.01
2016-12-10T01:29:28.673Z,99.01
2016-12-10T01:31:28.745Z,99.2
2016-12-10T01:32:10.219Z,99.39
2016-12-10T01:32:51.954Z,99.2
2016-12-10T01:34:46.506Z,99.49
2016-12-10T01:35:28.183Z,99.58
2016-12-10T01:36:09.961Z,99.3
2016-12-10T01:36:51.675Z,99.15
2016-12-10T01:37:33.042Z,99.99
2016-12-10T01:38:14.730Z,99.72
2016-12-10T01:38:56.485Z,99.99
2016-12-10T01:39:38.118Z,99.99
2016-12-10T01:40:19.670Z,99.77
2016-12-10T01:41:01.384Z,99.96
2016-12-10T01:41:43.092Z,99.99
2016-12-10T01:42:24.824Z,99.99
2016-12-10T01:44:45.623Z,99.99
2016-12-10T01:45:27.219Z,99.91
2016-12-10T01:47:27.342Z,99.72
2016-12-10T01:48:09.045Z,99.99
2016-12-10T01:48:50.776Z,99.99
2016-12-10T01:49:32.347Z,99.63
2016-12-10T01:51:32.524Z,99.99
2016-12-10T01:53:47.527Z,99.82
2016-12-10T01:56:02.803Z,99.99
2016-12-10T01:56:44.562Z,99.99
2016-12-10T01:57:26.312Z,99.91
2016-12-10T01:59:15.670Z,99.72
2016-12-10T01:59:56.921Z,99.91
2016-12-10T02:00:37.456Z,99.99
2016-12-10T02:01:17.978Z,99.99
2016-12-10T02:01:58.510Z,99.99
2016-12-10T02:02:39.040Z,99.82
2016-12-10T02:03:19.570Z,99.99
2016-12-10T02:04:00.100Z,99.99
2016-12-10T02:04:40.621Z,99.99
2016-12-10T02:05:21.229Z,99.99
2016-12-10T02:06:01.749Z,99.99
2016-12-10T02:06:42.269Z,99.99
2016-12-10T02:07:22.833Z,99.99
2016-12-10T02:08:03.366Z,99.99
2016-12-10T02:08:43.902Z,99.99
2016-12-10T02:09:24.437Z,99.91
2016-12-10T02:10:04.965Z,99.99
2016-12-10T02:10:45.495Z,99.99
2016-12-10T02:11:26.026Z,99.99
2016-12-10T02:12:06.568Z,99.99
2016-12-10T02:12:47.077Z,99.99
2016-12-10T02:13:27.603Z,99.99
2016-12-10T02:14:08.127Z,99.99
2016-12-10T02:14:48.662Z,99.99
2016-12-10T02:15:29.193Z,99.99
2016-12-10T02:16:09.719Z,99.99
2016-12-10T02:16:50.243Z,99.99
2016-12-10T02:17:30.768Z,99.99
2016-12-10T02:18:11.333Z,99.99
2016-12-10T02:18:51.864Z,99.99
2016-12-10T02:19:32.394Z,99.99
2016-12-10T02:20:12.921Z,99.99
2016-12-10T02:20:53.452Z,99.99
2016-12-10T02:21:33.993Z,99.99
2016-12-10T02:22:14.533Z,99.99
2016-12-10T02:22:55.061Z,99.99
2016-12-10T02:23:35.596Z,99.99
2016-12-10T02:24:16.106Z,99.99
2016-12-10T02:24:56.635Z,99.99
2016-12-10T02:25:37.160Z,99.99
2016-12-10T02:26:17.682Z,99.99
2016-12-10T02:26:58.203Z,99.99
2016-12-10T02:27:38.736Z,99.99
2016-12-10T02:28:19.264Z,99.99
2016-12-10T02:28:59.801Z,99.99
2016-12-10T02:29:40.328Z,99.99
2016-12-10T02:30:20.837Z,99.99
2016-12-10T02:31:01.372Z,99.99
2016-12-10T02:31:41.896Z,99.99
2016-12-10T02:32:22.432Z,99.99
2016-12-10T02:33:02.956Z,99.99
2016-12-10T02:33:43.482Z,99.99
2016-12-10T02:34:24.038Z,99.99
2016-12-10T02:35:04.545Z,99.99
2016-12-10T02:35:45.079Z,99.99
2016-12-10T02:36:25.608Z,99.99
2016-12-10T02:37:06.142Z,99.99
2016-12-10T02:37:46.693Z,99.99
2016-12-10T02:38:27.220Z,99.99
2016-12-10T02:39:07.801Z,99.99
2016-12-10T02:39:48.334Z,99.99
2016-12-10T02:40:28.864Z,99.99
2016-12-10T02:41:09.395Z,99.99
2016-12-10T02:41:49.936Z,99.99
2016-12-10T02:42:30.486Z,99.99
2016-12-10T02:43:10.996Z,99.99
2016-12-10T02:43:51.518Z,99.99
2016-12-10T02:44:32.022Z,99.99
2016-12-10T02:45:12.554Z,99.99
2016-12-10T02:45:53.080Z,99.99
2016-12-10T02:46:33.609Z,99.99
2016-12-10T02:47:14.128Z,99.99
2016-12-10T02:47:54.658Z,99.99
2016-12-10T02:48:35.183Z,99.99
2016-12-10T02:49:15.709Z,99.99
2016-12-10T02:49:56.257Z,99.99
2016-12-10T02:50:36.792Z,99.99
2016-12-10T02:51:17.334Z,99.99
2016-12-10T02:51:57.850Z,99.99
2016-12-10T02:52:38.388Z,99.99
2016-12-10T02:53:18.907Z,99.99
2016-12-10T02:53:59.442Z,99.99
2016-12-10T02:54:39.970Z,99.99
2016-12-10T02:55:20.506Z,99.99
2016-12-10T02:56:01.031Z,99.99
2016-12-10T02:56:41.564Z,99.99
2016-12-10T02:57:22.098Z,99.99
2016-12-10T02:58:02.630Z,99.99
2016-12-10T02:58:43.153Z,99.99
2016-12-10T02:59:23.704Z,99.99
2016-12-10T03:00:04.238Z,99.99
2016-12-10T03:00:44.783Z,99.99
2016-12-10T03:01:25.311Z,99.99
2016-12-10T03:02:05.830Z,99.99
2016-12-10T03:02:46.366Z,99.99
2016-12-10T03:03:26.890Z,99.99
2016-12-10T03:04:07.421Z,99.99
2016-12-10T03:04:47.947Z,99.99
2016-12-10T03:05:28.478Z,99.99
2016-12-10T03:06:08.998Z,99.99
2016-12-10T03:06:49.530Z,99.99
2016-12-10T03:07:30.064Z,99.99
2016-12-10T03:08:10.615Z,99.99
2016-12-10T03:08:51.138Z,99.99
2016-12-10T03:09:31.666Z,99.99
2016-12-10T03:10:12.194Z,99.99
2016-12-10T03:10:52.743Z,99.99
2016-12-10T03:11:33.282Z,99.99
2016-12-10T03:12:13.812Z,99.99
2016-12-10T03:12:54.334Z,99.99
2016-12-10T03:13:34.850Z,99.99
2016-12-10T03:14:15.386Z,99.99
2016-12-10T03:14:55.911Z,99.99
2016-12-10T03:15:36.437Z,99.99
2016-12-10T03:16:16.973Z,99.99
2016-12-10T03:16:57.491Z,99.99
2016-12-10T03:17:38.018Z,99.99
2016-12-10T03:18:18.538Z,99.99
2016-12-10T03:18:59.070Z,99.99
2016-12-10T03:19:39.598Z,99.99
2016-12-10T03:20:20.131Z,99.99
2016-12-10T03:21:00.671Z,99.99
2016-12-10T03:21:41.206Z,99.99
2016-12-10T03:22:21.802Z,99.99
2016-12-10T03:23:02.334Z,99.99
2016-12-10T03:23:42.867Z,99.99
2016-12-10T03:24:23.396Z,99.99
2016-12-10T03:25:03.920Z,99.99
2016-12-10T03:25:44.470Z,99.99
2016-12-10T03:26:24.980Z,99.99
2016-12-10T03:27:05.516Z,99.99
2016-12-10T03:27:46.042Z,99.99
2016-12-10T03:28:26.573Z,99.99
2016-12-10T03:29:07.091Z,99.99
2016-12-10T03:29:47.599Z,99.99
2016-12-10T03:30:28.124Z,99.99
2016-12-10T03:31:08.655Z,99.99
2016-12-10T03:31:49.171Z,99.99
2016-12-10T03:32:29.696Z,99.99
2016-12-10T03:33:10.228Z,99.99
2016-12-10T03:33:50.770Z,99.99
2016-12-10T03:34:31.296Z,99.99
2016-12-10T03:35:11.835Z,99.99
2016-12-10T03:35:52.377Z,99.99
2016-12-10T03:36:32.912Z,99.99
2016-12-10T03:37:13.453Z,99.99
2016-12-10T03:37:53.981Z,99.99
2016-12-10T03:38:34.501Z,99.99
2016-12-10T03:39:15.033Z,99.99
2016-12-10T03:39:55.568Z,99.99
2016-12-10T03:40:36.099Z,99.99
2016-12-10T03:41:16.630Z,99.99
2016-12-10T03:41:57.156Z,99.99
2016-12-10T03:42:37.686Z,99.99
2016-12-10T03:43:18.218Z,99.99
2016-12-10T03:43:58.750Z,99.99
2016-12-10T03:44:39.272Z,99.99
2016-12-10T03:45:19.808Z,99.99
2016-12-10T03:46:00.337Z,99.99
2016-12-10T03:46:40.876Z,99.99
2016-12-10T03:47:21.406Z,99.99
2016-12-10T03:48:01.949Z,99.99
2016-12-10T03:48:42.482Z,99.99
2016-12-10T03:49:23.019Z,99.99
2016-12-10T03:50:03.583Z,99.99
2016-12-10T03:50:44.122Z,99.99
2016-12-10T03:51:24.650Z,99.99
2016-12-10T03:52:05.176Z,99.99
2016-12-10T03:52:45.708Z,99.99
2016-12-10T03:53:26.229Z,99.99
2016-12-10T03:54:06.762Z,99.99
2016-12-10T03:54:47.291Z,99.99
2016-12-10T03:55:27.817Z,99.99
2016-12-10T03:56:08.357Z,99.99
2016-12-10T03:56:48.892Z,99.99
2016-12-10T03:57:29.441Z,99.99
2016-12-10T03:58:09.950Z,99.99
2016-12-10T03:58:50.492Z,99.99
2016-12-10T03:59:30.995Z,99.99
2016-12-10T04:00:11.526Z,99.99
2016-12-10T04:00:52.069Z,99.99
2016-12-10T04:01:32.599Z,99.99
2016-12-10T04:02:13.110Z,99.99
2016-12-10T04:02:53.628Z,99.99
2016-12-10T04:03:34.154Z,99.99
2016-12-10T04:04:14.718Z,99.99
2016-12-10T04:04:55.252Z,99.99
2016-12-10T04:05:35.782Z,99.99
2016-12-10T04:06:16.310Z,99.99
2016-12-10T04:06:56.842Z,99.99
2016-12-10T04:07:37.380Z,99.99
2016-12-10T04:08:17.907Z,99.99
2016-12-10T04:08:58.439Z,99.99
2016-12-10T04:09:38.964Z,99.99
2016-12-10T04:10:19.494Z,99.99
2016-12-10T04:11:00.025Z,99.99
2016-12-10T04:11:40.580Z,99.99
2016-12-10T04:12:21.111Z,99.99
2016-12-10T04:13:01.620Z,99.99
2016-12-10T04:13:42.158Z,99.99
2016-12-10T04:14:22.683Z,99.99
2016-12-10T04:15:03.217Z,99.99
2016-12-10T04:15:43.749Z,99.99
2016-12-10T04:16:24.287Z,99.99
2016-12-10T04:17:04.841Z,99.99
2016-12-10T04:17:45.366Z,99.99
2016-12-10T04:18:25.887Z,99.99
2016-12-10T04:19:06.411Z,99.99
2016-12-10T04:19:46.945Z,99.99
2016-12-10T04:20:27.475Z,99.99
2016-12-10T04:21:07.997Z,99.99
2016-12-10T04:21:48.533Z,99.99
2016-12-10T04:22:29.063Z,99.99
2016-12-10T04:23:09.590Z,99.99
2016-12-10T04:23:50.112Z,99.99
2016-12-10T04:24:30.640Z,99.99
2016-12-10T04:25:11.179Z,99.99
2016-12-10T04:25:51.710Z,99.99
2016-12-10T04:26:32.240Z,99.99
2016-12-10T04:27:12.773Z,99.99
2016-12-10T04:27:53.303Z,99.99
2016-12-10T04:28:33.842Z,99.99
2016-12-10T04:29:14.371Z,99.99
2016-12-10T04:29:54.903Z,99.99
2016-12-10T04:30:35.437Z,99.99
2016-12-10T04:31:15.961Z,99.99
2016-12-10T04:31:56.492Z,99.99
2016-12-10T04:32:37.038Z,99.99
2016-12-10T04:33:17.572Z,99.99
2016-12-10T04:33:58.104Z,99.99
2016-12-10T04:34:38.633Z,99.99
2016-12-10T04:35:19.163Z,99.99
2016-12-10T04:35:59.696Z,99.99
2016-12-10T04:36:40.263Z,99.99
2016-12-10T04:37:20.779Z,99.99
2016-12-10T04:38:01.320Z,99.99
2016-12-10T04:38:41.846Z,99.99
2016-12-10T04:39:22.380Z,99.99
2016-12-10T04:40:02.924Z,99.99
2016-12-10T04:40:43.452Z,99.99
2016-12-10T04:41:23.983Z,99.99
2016-12-10T04:42:04.511Z,99.99
2016-12-10T04:42:45.038Z,99.99
2016-12-10T04:43:25.563Z,99.99
2016-12-10T04:44:06.105Z,99.99
2016-12-10T04:44:46.639Z,99.99
2016-12-10T04:45:27.159Z,99.99
2016-12-10T04:46:07.705Z,99.99
2016-12-10T04:46:48.237Z,99.99
2016-12-10T04:47:28.785Z,99.99
2016-12-10T04:48:09.294Z,99.99
2016-12-10T04:48:49.835Z,99.99
2016-12-10T04:49:30.372Z,99.99
2016-12-10T04:50:10.952Z,99.99
2016-12-10T04:50:51.474Z,99.99
2016-12-10T04:51:31.997Z,99.99
2016-12-10T04:52:12.523Z,99.99
2016-12-10T04:52:53.067Z,99.99
2016-12-10T04:53:33.597Z,99.99
2016-12-10T04:54:14.123Z,99.99
2016-12-10T04:54:54.646Z,99.99
2016-12-10T04:55:35.186Z,99.99
2016-12-10T04:56:15.722Z,99.99
2016-12-10T04:56:56.273Z,99.99
2016-12-10T04:57:36.800Z,99.99
2016-12-10T04:58:17.341Z,99.99
2016-12-10T04:58:57.877Z,99.99
2016-12-10T04:59:38.436Z,99.99
2016-12-10T05:00:18.925Z,99.99
2016-12-10T05:00:59.471Z,99.99
2016-12-10T05:01:39.992Z,99.99
2016-12-10T05:02:20.520Z,99.99
2016-12-10T05:03:01.051Z,99.99
2016-12-10T05:03:41.559Z,99.99
2016-12-10T05:04:22.091Z,99.99
2016-12-10T05:05:02.623Z,99.99
2016-12-10T05:05:43.152Z,99.99
2016-12-10T05:06:23.673Z,99.99
2016-12-10T05:07:04.209Z,99.99
2016-12-10T05:07:44.743Z,99.99
2016-12-10T05:08:25.276Z,99.99
2016-12-10T05:09:05.797Z,99.99
2016-12-10T05:09:46.333Z,99.99
2016-12-10T05:10:26.868Z,99.99
2016-12-10T05:11:07.442Z,99.99
2016-12-10T05:11:47.978Z,99.99
2016-12-10T05:12:28.508Z,99.99
2016-12-10T05:13:09.045Z,99.99
2016-12-10T05:13:49.572Z,99.99
2016-12-10T05:14:30.095Z,99.99
2016-12-10T05:15:10.635Z,99.99
2016-12-10T05:15:51.152Z,99.99
2016-12-10T05:16:31.699Z,99.99
2016-12-10T05:17:12.228Z,99.99
2016-12-10T05:17:52.762Z,99.99
2016-12-10T05:18:33.295Z,99.99
2016-12-10T05:19:13.833Z,99.99
2016-12-10T05:19:54.371Z,99.99
2016-12-10T05:20:34.901Z,99.99
2016-12-10T05:21:15.430Z,99.99
2016-12-10T05:21:55.956Z,99.99
2016-12-10T05:22:36.475Z,99.99
2016-12-10T05:23:17.014Z,99.99
2016-12-10T05:23:57.549Z,99.99
2016-12-10T05:24:38.072Z,99.99
2016-12-10T05:25:18.609Z,99.99
2016-12-10T05:25:59.152Z,99.99
2016-12-10T05:26:39.677Z,99.99
2016-12-10T05:27:20.226Z,99.99
2016-12-10T05:28:00.752Z,99.99
2016-12-10T05:28:41.279Z,99.99
2016-12-10T05:29:21.805Z,99.99
2016-12-10T05:30:02.326Z,99.99
2016-12-10T05:30:42.856Z,99.99
2016-12-10T05:31:23.370Z,99.99
2016-12-10T05:32:03.936Z,99.99
2016-12-10T05:32:44.484Z,99.99
2016-12-10T05:33:25.019Z,99.99
2016-12-10T05:34:05.547Z,99.99
2016-12-10T05:34:46.085Z,99.99
2016-12-10T05:35:26.616Z,99.99
2016-12-10T05:36:07.157Z,99.99
2016-12-10T05:36:47.691Z,99.99
2016-12-10T05:37:28.215Z,99.99
2016-12-10T05:38:08.746Z,99.99
2016-12-10T05:38:49.275Z,99.99
2016-12-10T05:39:29.799Z,99.99
2016-12-10T05:40:10.324Z,99.99
2016-12-10T05:40:50.862Z,99.99
2016-12-10T05:41:31.397Z,99.99
2016-12-10T05:42:11.927Z,99.99
2016-12-10T05:42:52.452Z,99.99
2016-12-10T05:43:32.993Z,99.99
2016-12-10T05:44:13.515Z,99.99
2016-12-10T05:44:54.044Z,99.99
2016-12-10T05:45:34.580Z,99.99
2016-12-10T05:46:15.114Z,99.99
2016-12-10T05:46:55.631Z,99.99
2016-12-10T05:47:36.402Z,99.99
2016-12-10T05:48:17.216Z,99.99
2016-12-10T05:48:57.734Z,99.99
2016-12-10T05:49:38.262Z,99.99
2016-12-10T05:50:18.793Z,99.99
2016-12-10T05:50:59.325Z,99.99
2016-12-10T05:51:39.849Z,99.99
2016-12-10T05:52:20.366Z,99.99
2016-12-10T05:53:00.894Z,99.99
2016-12-10T05:53:41.418Z,99.99
2016-12-10T05:54:21.952Z,99.99
2016-12-10T05:55:02.494Z,99.99
2016-12-10T05:55:43.031Z,99.99
2016-12-10T05:56:23.537Z,99.99
2016-12-10T05:57:04.075Z,99.99
2016-12-10T05:57:44.580Z,99.99
2016-12-10T05:58:25.098Z,99.99
2016-12-10T05:59:05.623Z,99.99
2016-12-10T05:59:46.149Z,99.99
2016-12-10T06:00:26.684Z,99.99
2016-12-10T06:01:07.221Z,99.99
2016-12-10T06:01:47.759Z,99.99
2016-12-10T06:02:28.276Z,99.99
2016-12-10T06:03:08.809Z,99.99
2016-12-10T06:03:49.331Z,99.99
2016-12-10T06:04:29.862Z,99.99
2016-12-10T06:05:10.382Z,99.99
2016-12-10T06:05:50.909Z,99.99
2016-12-10T06:06:31.471Z,99.99
2016-12-10T06:07:12.011Z,99.99
2016-12-10T06:07:52.548Z,99.99
2016-12-10T06:08:33.086Z,99.99
2016-12-10T06:09:13.630Z,99.99
2016-12-10T06:09:54.165Z,99.99
2016-12-10T06:10:34.696Z,99.99
2016-12-10T06:11:15.226Z,99.99
2016-12-10T06:11:55.764Z,99.99
2016-12-10T06:12:36.308Z,99.99
2016-12-10T06:13:16.841Z,99.99
2016-12-10T06:13:57.370Z,99.99
2016-12-10T06:14:37.899Z,99.99
2016-12-10T06:15:18.430Z,99.99
2016-12-10T06:15:58.971Z,99.99
2016-12-10T06:16:39.505Z,99.99
2016-12-10T06:17:20.037Z,99.99
2016-12-10T06:18:00.561Z,99.99
2016-12-10T06:18:41.086Z,99.99
2016-12-10T06:19:21.615Z,99.99
2016-12-10T06:20:02.147Z,99.99
2016-12-10T06:20:42.678Z,99.99
2016-12-10T06:21:23.215Z,99.99
2016-12-10T06:22:03.740Z,99.99
2016-12-10T06:22:44.272Z,99.99
2016-12-10T06:23:24.809Z,99.99
2016-12-10T06:24:05.363Z,99.99
2016-12-10T06:24:45.899Z,99.99
2016-12-10T06:25:26.427Z,99.99
2016-12-10T06:26:06.956Z,99.99
2016-12-10T06:26:47.487Z,99.99
2016-12-10T06:27:28.023Z,99.99
2016-12-10T06:28:08.562Z,99.99
2016-12-10T06:28:49.105Z,99.99
2016-12-10T06:29:29.622Z,99.99
2016-12-10T06:30:10.138Z,99.99
2016-12-10T06:30:50.678Z,99.99
2016-12-10T06:31:31.213Z,99.99
2016-12-10T06:32:11.746Z,99.99
2016-12-10T06:32:52.287Z,99.99
2016-12-10T06:33:32.828Z,99.99
2016-12-10T06:34:13.360Z,99.99
2016-12-10T06:34:53.906Z,99.99
2016-12-10T06:35:34.426Z,99.99
2016-12-10T06:36:14.966Z,99.99
2016-12-10T06:36:55.511Z,99.99
2016-12-10T06:37:36.058Z,99.99
2016-12-10T06:38:16.590Z,99.99
2016-12-10T06:38:57.139Z,99.99
2016-12-10T06:39:37.671Z,99.99
2016-12-10T06:40:18.202Z,99.99
2016-12-10T06:40:58.748Z,99.99
2016-12-10T06:41:39.282Z,99.99
2016-12-10T06:42:19.809Z,99.99
2016-12-10T06:43:00.324Z,99.99
2016-12-10T06:43:40.837Z,99.99
2016-12-10T06:44:21.376Z,99.99
2016-12-10T06:45:01.910Z,99.99
2016-12-10T06:45:42.431Z,99.99
2016-12-10T06:46:22.968Z,99.99
2016-12-10T06:47:03.495Z,99.99
2016-12-10T06:47:44.028Z,99.99
2016-12-10T06:48:24.570Z,99.99
2016-12-10T06:49:05.128Z,99.99
2016-12-10T06:49:45.653Z,99.99
2016-12-10T06:50:26.165Z,99.99
2016-12-10T06:51:06.701Z,99.99
2016-12-10T06:51:47.228Z,99.99
2016-12-10T06:52:27.759Z,99.99
2016-12-10T06:53:08.274Z,99.99
2016-12-10T06:53:48.803Z,99.99
2016-12-10T06:54:29.350Z,99.99
2016-12-10T06:55:09.880Z,99.99
2016-12-10T06:55:50.404Z,99.99
2016-12-10T06:56:30.919Z,99.99
2016-12-10T06:57:11.452Z,99.99
2016-12-10T06:57:51.980Z,99.99
2016-12-10T06:58:32.511Z,99.99
2016-12-10T06:59:13.023Z,99.99
2016-12-10T06:59:53.540Z,99.99
2016-12-10T07:00:34.072Z,99.99
2016-12-10T07:01:14.615Z,99.99
2016-12-10T07:01:55.156Z,99.99
2016-12-10T07:02:35.659Z,99.99
2016-12-10T07:03:16.198Z,99.99
2016-12-10T07:03:56.734Z,99.99
2016-12-10T07:04:37.267Z,99.99
2016-12-10T07:05:17.796Z,99.99
2016-12-10T07:05:58.380Z,99.99
2016-12-10T07:06:38.922Z,99.99
2016-12-10T07:07:19.447Z,99.99
2016-12-10T07:07:59.978Z,99.99
2016-12-10T07:08:40.496Z,99.99
2016-12-10T07:09:21.038Z,99.99
2016-12-10T07:10:01.579Z,99.99
2016-12-10T07:10:42.113Z,99.99
2016-12-10T07:11:22.646Z,99.99
2016-12-10T07:12:03.194Z,99.99
2016-12-10T07:12:43.713Z,99.99
2016-12-10T07:13:24.242Z,99.99
2016-12-10T07:14:04.776Z,99.99
2016-12-10T07:14:45.299Z,99.99
2016-12-10T07:15:25.831Z,99.99
2016-12-10T07:16:06.365Z,99.99
2016-12-10T07:16:46.891Z,99.99
2016-12-10T07:17:27.419Z,99.99
2016-12-10T07:18:07.954Z,99.99
2016-12-10T07:18:48.489Z,99.99
2016-12-10T07:19:29.008Z,99.99
2016-12-10T07:20:09.550Z,99.99
2016-12-10T07:20:50.079Z,99.99
2016-12-10T07:21:30.621Z,99.99
2016-12-10T07:22:11.162Z,99.99
2016-12-10T07:22:51.689Z,99.99
2016-12-10T07:23:32.217Z,99.99
2016-12-10T07:24:12.748Z,99.99
2016-12-10T07:24:53.280Z,99.99
2016-12-10T07:25:33.790Z,99.99
2016-12-10T07:26:14.332Z,99.99
2016-12-10T07:26:54.832Z,99.99
2016-12-10T07:27:35.375Z,99.99
2016-12-10T07:28:15.906Z,99.99
2016-12-10T07:28:56.453Z,99.99
2016-12-10T07:29:36.990Z,99.99
2016-12-10T07:30:17.520Z,99.99
2016-12-10T07:30:58.050Z,99.99
2016-12-10T07:31:38.581Z,99.99
2016-12-10T07:32:19.105Z,99.99
2016-12-10T07:32:59.632Z,99.99
2016-12-10T07:33:40.165Z,99.99
2016-12-10T07:34:20.705Z,99.99
2016-12-10T07:35:01.237Z,99.99
2016-12-10T07:35:41.759Z,99.99
2016-12-10T07:36:22.287Z,99.99
2016-12-10T07:37:02.824Z,99.99
2016-12-10T07:37:43.354Z,99.99
2016-12-10T07:38:23.892Z,99.99
2016-12-10T07:39:04.424Z,99.99
2016-12-10T07:39:44.947Z,99.99
2016-12-10T07:40:25.470Z,99.99
2016-12-10T07:41:06.008Z,99.99
2016-12-10T07:41:46.543Z,99.99
2016-12-10T07:42:27.077Z,99.99
2016-12-10T07:43:07.591Z,99.99
2016-12-10T07:43:48.118Z,99.99
2016-12-10T07:44:28.643Z,99.99
2016-12-10T07:45:09.178Z,99.99
2016-12-10T07:45:49.703Z,99.99
2016-12-10T07:46:30.232Z,99.99
2016-12-10T07:47:10.770Z,99.99
2016-12-10T07:47:51.302Z,99.99
2016-12-10T07:48:31.813Z,99.99
2016-12-10T07:49:12.338Z,99.99
2016-12-10T07:49:52.863Z,99.99
2016-12-10T07:50:33.400Z,99.99
2016-12-10T07:51:13.915Z,99.99
2016-12-10T07:51:54.444Z,99.99
2016-12-10T07:52:35.055Z,99.99
2016-12-10T07:53:15.585Z,99.99
2016-12-10T07:53:56.111Z,99.99
2016-12-10T07:54:36.645Z,99.99
2016-12-10T07:55:17.187Z,99.99
2016-12-10T07:55:57.717Z,99.99
2016-12-10T07:56:38.241Z,99.99
2016-12-10T07:57:18.775Z,99.99
2016-12-10T07:57:59.300Z,99.99
2016-12-10T07:58:39.827Z,99.99
2016-12-10T07:59:20.362Z,99.99
2016-12-10T08:00:00.883Z,99.99
2016-12-10T08:00:41.401Z,99.99
2016-12-10T08:01:21.912Z,99.99
2016-12-10T08:02:02.436Z,99.99
2016-12-10T08:02:42.954Z,99.99
2016-12-10T08:03:23.490Z,99.99
2016-12-10T08:04:04.041Z,99.99
2016-12-10T08:04:44.551Z,99.99
2016-12-10T08:05:25.088Z,99.99
2016-12-10T08:06:05.619Z,99.99
2016-12-10T08:06:46.145Z,99.99
2016-12-10T08:07:26.677Z,99.99
2016-12-10T08:08:07.220Z,99.99
2016-12-10T08:08:47.761Z,99.99
2016-12-10T08:09:28.261Z,99.99
2016-12-10T08:10:08.798Z,99.99
2016-12-10T08:10:49.323Z,99.99
2016-12-10T08:11:29.851Z,99.99
2016-12-10T08:12:10.388Z,99.99
2016-12-10T08:12:50.918Z,99.99
2016-12-10T08:13:31.460Z,99.99
2016-12-10T08:14:11.984Z,99.99
2016-12-10T08:14:52.519Z,99.99
2016-12-10T08:15:33.070Z,99.99
2016-12-10T08:16:13.582Z,99.99
2016-12-10T08:16:54.140Z,99.99
2016-12-10T08:17:34.681Z,99.99
2016-12-10T08:18:15.204Z,99.99
2016-12-10T08:18:55.750Z,99.99
2016-12-10T08:19:36.302Z,99.99
2016-12-10T08:20:16.800Z,99.99
2016-12-10T08:20:57.340Z,99.99
2016-12-10T08:21:37.891Z,99.99
2016-12-10T08:22:18.423Z,99.99
2016-12-10T08:22:58.953Z,99.99
2016-12-10T08:23:39.489Z,99.99
2016-12-10T08:24:20.074Z,99.99
2016-12-10T08:25:00.634Z,99.99
2016-12-10T08:25:41.186Z,99.99
2016-12-10T08:26:21.719Z,99.99
2016-12-10T08:27:02.256Z,99.99
2016-12-10T08:27:42.786Z,99.99
2016-12-10T08:28:23.314Z,99.99
2016-12-10T08:29:03.831Z,99.99
2016-12-10T08:29:44.363Z,99.99
2016-12-10T08:30:26.530Z,99.99
2016-12-10T08:31:07.060Z,99.99
2016-12-10T08:31:47.594Z,99.99
2016-12-10T08:32:28.167Z,99.99
2016-12-10T08:33:08.697Z,99.99
2016-12-10T08:33:49.221Z,99.99
2016-12-10T08:34:29.753Z,99.99
2016-12-10T08:35:10.275Z,99.99
2016-12-10T08:35:50.806Z,99.99
2016-12-10T08:36:31.334Z,99.99
2016-12-10T08:37:11.860Z,99.99
2016-12-10T08:37:52.371Z,99.99
2016-12-10T08:38:32.905Z,99.99
2016-12-10T08:39:13.432Z,99.99
2016-12-10T08:39:53.973Z,99.99
2016-12-10T08:40:34.503Z,99.99
2016-12-10T08:41:15.062Z,99.99
2016-12-10T08:41:55.566Z,99.99
2016-12-10T08:42:36.107Z,99.99
2016-12-10T08:43:16.636Z,99.99
2016-12-10T08:43:57.173Z,99.99
2016-12-10T08:44:37.704Z,99.99
2016-12-10T08:45:18.241Z,99.99
2016-12-10T08:45:58.777Z,99.99
2016-12-10T08:46:39.323Z,99.99
2016-12-10T08:47:19.845Z,99.99
2016-12-10T08:48:00.358Z,99.99
2016-12-10T08:48:40.923Z,99.99
2016-12-10T08:49:21.457Z,99.99
2016-12-10T08:50:01.997Z,99.96
2016-12-10T08:50:42.539Z,99.99
2016-12-10T08:51:23.067Z,99.77
2016-12-10T08:52:03.599Z,99.96
2016-12-10T08:52:44.150Z,99.96
2016-12-10T08:53:24.684Z,99.3
2016-12-10T08:54:05.234Z,99.39
2016-12-10T08:54:45.769Z,99.2
2016-12-10T08:55:26.305Z,98.4
2016-12-10T08:56:06.832Z,98.21
2016-12-10T08:56:47.370Z,97.74
2016-12-10T08:57:27.887Z,97.36
2016-12-10T08:58:10.327Z,97.64
2016-12-10T08:58:50.864Z,97.45
2016-12-10T08:59:31.383Z,97.36
2016-12-10T09:00:11.920Z,97.45
2016-12-10T09:00:52.455Z,97.17
2016-12-10T09:01:32.988Z,97.64
2016-12-10T09:02:13.524Z,97.36
2016-12-10T09:02:54.062Z,97.64
2016-12-10T09:03:34.593Z,96.78
2016-12-10T09:04:15.128Z,96.41
2016-12-10T09:04:55.663Z,96.59
2016-12-10T09:05:36.196Z,96.5
2016-12-10T09:06:16.735Z,96.08
2016-12-10T09:06:57.264Z,96.45
2016-12-10T09:07:37.807Z,95.6
2016-12-10T09:08:18.334Z,96.08
2016-12-10T09:08:58.865Z,95.41
2016-12-10T09:09:39.416Z,94.74
2016-12-10T09:10:19.945Z,95.31
2016-12-10T09:11:00.476Z,94.84
2016-12-10T09:11:41.015Z,94.56
2016-12-10T09:12:21.607Z,94.27
2016-12-10T09:13:02.141Z,94.08
2016-12-10T09:13:42.688Z,93.75
2016-12-10T09:14:23.228Z,93.56
2016-12-10T09:15:03.762Z,93.18
2016-12-10T09:15:44.298Z,93.08
2016-12-10T09:16:24.835Z,91.42
2016-12-10T09:17:05.371Z,91.71
2016-12-10T09:17:45.902Z,91.33
2016-12-10T09:18:26.439Z,91.61